Terminal Aerodrome Forecast
Issued by NWS Mt. Holly, NJ

Home | Current Version | Previous Version | Text Only | Print | Product List | Glossary On
Versions: 1 2 3 4 5 6 7 8 9 10 11 12 13 14 15 16 17
000
FTUS41 KPHI 221720
TAFTTN
TAF
KTTN 221720Z 2218/2318 23011KT P6SM SCT030 BKN035
      TEMPO 2218/2220 BKN025
     FM230000 22008KT P6SM BKN060
      TEMPO 2303/2306 4SM -TSRA OVC035CB
     FM230900 28006KT P6SM VCSH SCT012 BKN035
     FM231500 32008KT P6SM SCT035 SCT250=

USA.gov is the U.S. government's official web portal to all federal, state and local government web resources and services.